Time;durP1;ratioP1;P1;durP2;ratioP2;P2;SDS_P1;SDS_P2;PMS_P1;PMS_P2;Temp;Humidity;BMP_temperature;BMP_pressure;BME280_temperature;BME280_humidity;BME280_pressure;Samples;Min_cycle;Max_cycle;Signal;HPM_P1;HPM_P2
2023/07/15 00:00:56;;;;;;;2.97;2.45;;;26.00;41.20;26.80;99881.00;;;;6272035;22;20235;-56
2023/07/15 00:03:21;;;;;;;3.38;2.50;;;25.90;41.00;26.80;99826.00;;;;6244251;22;20144;-58
2023/07/15 00:05:48;;;;;;;2.70;2.50;;;26.00;41.00;26.80;99870.00;;;;6270192;22;20168;-56
2023/07/15 00:08:13;;;;;;;2.72;2.50;;;26.00;41.40;26.70;99870.00;;;;6270545;22;20145;-56
2023/07/15 00:10:44;;;;;;;2.67;2.47;;;25.90;41.20;26.70;99876.00;;;;6270623;22;20219;-56
2023/07/15 00:13:14;;;;;;;4.25;2.60;;;25.90;41.40;26.70;99852.00;;;;6270919;22;20184;-56
2023/07/15 00:15:41;;;;;;;2.58;2.38;;;26.00;41.30;26.70;99872.00;;;;6270230;22;20751;-56
2023/07/15 00:18:09;;;;;;;4.00;2.80;;;25.90;41.40;26.70;99873.00;;;;6270540;22;20133;-56
2023/07/15 00:20:38;;;;;;;3.30;2.40;;;25.90;41.40;26.70;99872.00;;;;6270848;22;20175;-56
2023/07/15 00:23:24;;;;;;;2.85;2.60;;;26.00;41.40;26.80;99875.00;;;;6270677;22;20145;-55
2023/07/15 00:25:53;;;;;;;2.65;2.45;;;26.00;41.60;26.70;99871.00;;;;6270619;22;20552;-56
2023/07/15 00:28:20;;;;;;;2.97;2.67;;;25.90;42.30;26.70;99876.00;;;;6270769;22;20145;-56
2023/07/15 00:30:51;;;;;;;4.53;2.85;;;25.90;41.80;26.70;99864.00;;;;6270829;22;20149;-56
2023/07/15 00:33:17;;;;;;;2.70;2.50;;;25.90;41.80;26.70;99874.00;;;;6244314;22;20570;-56
2023/07/15 00:35:43;;;;;;;3.95;2.72;;;25.90;41.70;26.70;99871.00;;;;6270303;22;20175;-57
2023/07/15 00:38:10;;;;;;;5.60;3.08;;;25.90;41.80;26.70;99869.00;;;;6271174;22;20149;-56
2023/07/15 00:40:44;;;;;;;5.60;3.30;;;25.90;41.80;26.70;99869.00;;;;6272756;22;20268;-56
2023/07/15 00:43:51;;;;;;;7.20;4.40;;;25.90;41.90;26.70;99863.00;;;;6245844;22;20216;-56
2023/07/15 00:46:22;;;;;;;5.82;4.50;;;25.90;42.00;26.70;99859.00;;;;6271516;22;20172;-56
2023/07/15 00:49:18;;;;;;;7.82;5.30;;;25.90;42.20;26.70;99869.00;;;;6272447;22;20143;-55
2023/07/15 00:52:12;;;;;;;9.13;5.55;;;25.90;42.20;26.70;99867.00;;;;6272442;22;20176;-56
2023/07/15 00:54:40;;;;;;;8.90;6.00;;;25.90;42.20;26.60;99886.00;;;;6270904;22;20199;-56
2023/07/15 00:57:07;;;;;;;8.82;5.75;;;25.90;42.30;26.60;99873.00;;;;6270473;22;20165;-56
2023/07/15 00:59:33;;;;;;;10.95;6.70;;;25.80;42.20;26.40;99870.00;;;;6272870;22;20175;-56
2023/07/15 01:01:59;;;;;;;10.30;7.32;;;25.80;42.30;26.60;99866.00;;;;6272254;22;20176;-57
2023/07/15 01:04:26;;;;;;;10.05;7.05;;;25.80;42.40;26.60;99858.00;;;;6272829;22;20271;-56
2023/07/15 01:06:55;;;;;;;9.77;7.20;;;25.80;42.50;26.60;99853.00;;;;6273051;22;20233;-56
2023/07/15 01:09:24;;;;;;;8.43;6.25;;;25.70;42.40;26.60;99856.00;;;;6254318;22;20160;-55
2023/07/15 01:11:49;;;;;;;9.40;6.35;;;25.80;42.50;26.60;99865.00;;;;6275236;22;20152;-54
2023/07/15 01:14:15;;;;;;;6.88;5.03;;;25.80;42.50;26.60;99870.00;;;;6270661;22;20216;-56
2023/07/15 01:16:41;;;;;;;9.02;5.20;;;25.70;42.30;26.50;99857.00;;;;6271757;22;20248;-55
2023/07/15 01:19:07;;;;;;;5.82;4.60;;;25.80;42.50;26.50;99852.00;;;;6272313;22;20149;-56
2023/07/15 01:21:36;;;;;;;5.03;3.88;;;25.70;42.60;26.50;99854.00;;;;6272347;22;20538;-56
2023/07/15 01:24:02;;;;;;;4.55;3.97;;;25.70;42.60;26.50;99850.00;;;;6274214;22;20145;-56
2023/07/15 01:26:29;;;;;;;3.97;3.47;;;25.70;42.60;26.50;99859.00;;;;6274233;22;20177;-56
2023/07/15 01:28:54;;;;;;;4.25;3.30;;;25.70;42.80;26.50;99853.00;;;;6272135;22;20656;-56
2023/07/15 01:31:20;;;;;;;4.65;3.60;;;25.70;42.60;26.50;99861.00;;;;6271759;22;20149;-56
2023/07/15 01:33:47;;;;;;;3.55;3.25;;;25.70;42.80;26.40;99857.00;;;;6272033;22;20141;-55
2023/07/15 01:36:13;;;;;;;3.72;3.35;;;25.70;42.80;26.40;99852.00;;;;6271734;22;20192;-56
2023/07/15 01:38:40;;;;;;;5.32;3.50;;;25.60;42.80;26.40;99846.00;;;;6272095;22;20211;-56
2023/07/15 01:41:06;;;;;;;3.47;2.95;;;25.60;42.80;26.40;99840.00;;;;6272191;22;20652;-56
2023/07/15 01:43:32;;;;;;;3.15;2.83;;;25.60;42.70;26.30;99853.00;;;;6270644;22;20207;-56
2023/07/15 01:45:58;;;;;;;3.35;3.05;;;25.60;42.80;26.40;99852.00;;;;6271700;22;20181;-55
2023/07/15 01:48:25;;;;;;;3.28;2.80;;;25.60;42.90;26.40;99835.00;;;;6271970;22;20221;-54
2023/07/15 01:50:51;;;;;;;3.08;2.83;;;25.60;42.90;26.40;99840.00;;;;6271790;22;20169;-54
2023/07/15 01:53:17;;;;;;;3.00;2.70;;;25.60;43.00;26.30;99836.00;;;;6271990;22;20157;-54
2023/07/15 01:55:43;;;;;;;2.78;2.58;;;25.60;43.10;26.40;99827.00;;;;6271454;22;20281;-55
2023/07/15 01:58:09;;;;;;;2.80;2.60;;;25.60;42.90;26.30;99838.00;;;;6271695;22;20163;-55
2023/07/15 02:00:35;;;;;;;3.10;2.80;;;25.60;43.00;26.30;99839.00;;;;6271755;22;20148;-56
2023/07/15 02:03:00;;;;;;;3.00;2.70;;;25.50;43.00;26.30;99836.00;;;;6271779;22;20177;-56
2023/07/15 02:05:26;;;;;;;4.28;2.47;;;25.60;43.00;26.30;99836.00;;;;6271490;22;20179;-56
2023/07/15 02:07:52;;;;;;;3.17;2.70;;;25.60;43.00;26.30;99828.00;;;;6271855;22;20164;-56
2023/07/15 02:10:18;;;;;;;3.15;2.58;;;25.50;43.00;26.30;99831.00;;;;6271655;22;20228;-56
2023/07/15 02:12:44;;;;;;;4.30;2.50;;;25.50;43.00;26.30;99819.00;;;;6271997;22;20585;-55
2023/07/15 02:15:10;;;;;;;3.17;2.70;;;25.50;43.00;26.30;99830.00;;;;6271336;22;20157;-56
2023/07/15 02:17:35;;;;;;;2.67;2.47;;;25.50;43.20;26.20;99826.00;;;;6271742;22;20181;-56
2023/07/15 02:20:04;;;;;;;3.15;2.60;;;25.50;43.10;26.20;99826.00;;;;6270045;22;20179;-56
2023/07/15 02:22:30;;;;;;;2.83;2.53;;;25.50;43.20;26.20;99825.00;;;;6269880;22;20542;-55
2023/07/15 02:24:56;;;;;;;3.42;2.67;;;25.50;43.20;26.20;99827.00;;;;6271209;22;20186;-54
2023/07/15 02:27:21;;;;;;;2.53;2.33;;;25.50;43.20;26.20;99826.00;;;;6271354;22;20179;-56
2023/07/15 02:29:47;;;;;;;2.58;2.38;;;25.50;43.20;26.20;99820.00;;;;6269740;22;20149;-55
2023/07/15 02:32:39;;;;;;;2.80;2.53;;;25.40;43.10;26.20;99825.00;;;;6271370;22;20237;-55
2023/07/15 02:35:09;;;;;;;3.38;2.30;;;25.50;43.30;26.20;99817.00;;;;6271583;22;20129;-54
2023/07/15 02:37:38;;;;;;;4.20;2.40;;;25.40;43.30;26.20;99818.00;;;;6271518;22;20160;-55
2023/07/15 02:40:06;;;;;;;3.28;2.50;;;25.40;43.30;26.20;99817.00;;;;6271874;22;20470;-55
2023/07/15 02:42:33;;;;;;;2.70;2.50;;;25.40;43.30;26.20;99810.00;;;;6271316;22;20156;-56
2023/07/15 02:45:01;;;;;;;2.42;2.22;;;25.40;43.20;26.10;99823.00;;;;6270951;22;20163;-55
2023/07/15 02:47:26;;;;;;;2.60;2.40;;;25.50;43.40;26.20;99819.00;;;;6271258;22;20179;-56
2023/07/15 02:49:52;;;;;;;2.85;2.50;;;25.40;43.30;26.10;99810.00;;;;6269845;22;20219;-55
2023/07/15 02:52:18;;;;;;;2.55;2.33;;;25.40;43.30;26.10;99817.00;;;;6269860;22;20573;-55
2023/07/15 02:54:44;;;;;;;3.20;2.58;;;25.40;43.40;26.10;99808.00;;;;6271243;22;20152;-56
2023/07/15 02:57:09;;;;;;;2.78;2.50;;;25.40;43.30;26.10;99806.00;;;;6269773;22;20165;-55
2023/07/15 02:59:35;;;;;;;2.47;2.28;;;25.40;43.30;26.10;99813.00;;;;6271464;22;20145;-55
2023/07/15 03:02:02;;;;;;;2.63;2.42;;;25.40;43.30;26.10;99819.00;;;;6272592;22;20145;-55
2023/07/15 03:04:27;;;;;;;3.67;2.40;;;25.40;43.30;26.00;99812.00;;;;6273034;22;20627;-55
2023/07/15 03:06:55;;;;;;;2.50;2.30;;;25.40;43.30;26.00;99819.00;;;;6272430;22;20173;-56
2023/07/15 03:09:21;;;;;;;2.63;2.42;;;25.30;43.40;26.00;99812.00;;;;6273079;22;20694;-55
2023/07/15 03:11:47;;;;;;;3.25;2.28;;;25.40;43.40;26.00;99817.00;;;;6272952;22;20467;-55
2023/07/15 03:14:13;;;;;;;2.50;2.30;;;25.40;43.30;26.00;99820.00;;;;6272936;22;20145;-55
2023/07/15 03:16:38;;;;;;;3.17;2.40;;;25.40;43.30;26.00;99832.00;;;;6270799;22;20195;-55
2023/07/15 03:19:04;;;;;;;3.33;2.60;;;25.30;43.30;26.00;99826.00;;;;6279128;22;20149;-55
2023/07/15 03:21:30;;;;;;;3.03;2.70;;;25.40;43.40;26.00;99832.00;;;;6273265;22;20149;-55
2023/07/15 03:23:55;;;;;;;3.35;2.60;;;25.30;43.30;26.00;99828.00;;;;6272915;22;20149;-55
2023/07/15 03:26:21;;;;;;;2.65;2.45;;;25.40;43.40;26.00;99828.00;;;;6272503;22;20506;-55
2023/07/15 03:28:47;;;;;;;2.80;2.22;;;25.30;43.50;26.00;99830.00;;;;6272784;22;20148;-55
2023/07/15 03:31:13;;;;;;;3.47;2.80;;;25.30;43.60;26.00;99828.00;;;;6270530;22;20142;-55
2023/07/15 03:33:38;;;;;;;3.60;2.30;;;25.30;43.60;25.90;99832.00;;;;6277467;22;20152;-55
2023/07/15 03:36:04;;;;;;;2.60;2.40;;;25.20;43.60;25.90;99831.00;;;;6274774;22;20165;-55
2023/07/15 03:38:30;;;;;;;2.40;2.20;;;25.30;43.60;25.90;99830.00;;;;6270945;22;20149;-55
2023/07/15 03:40:56;;;;;;;2.50;2.30;;;25.30;43.80;25.90;99824.00;;;;6272559;22;20149;-54
2023/07/15 03:43:22;;;;;;;3.53;2.30;;;25.20;44.30;25.90;99818.00;;;;6272722;22;20148;-56
2023/07/15 03:45:48;;;;;;;3.67;2.50;;;25.20;43.80;25.90;99826.00;;;;6271859;22;20657;-54
2023/07/15 03:48:13;;;;;;;2.88;2.53;;;25.20;43.80;25.90;99819.00;;;;6272478;22;20243;-55
2023/07/15 03:50:39;;;;;;;2.65;2.45;;;25.20;43.90;25.90;99825.00;;;;6272384;22;20620;-56
2023/07/15 03:53:05;;;;;;;3.78;2.50;;;25.20;43.90;25.80;99813.00;;;;6272691;22;20148;-55
2023/07/15 03:55:30;;;;;;;2.67;2.40;;;25.20;44.10;25.80;99831.00;;;;6272458;22;20169;-55
2023/07/15 03:57:56;;;;;;;2.78;2.40;;;25.10;44.00;25.80;99821.00;;;;6272900;22;20485;-55
2023/07/15 04:00:22;;;;;;;2.50;2.30;;;25.20;44.10;25.80;99824.00;;;;6271553;22;20141;-55
2023/07/15 04:02:49;;;;;;;2.30;2.10;;;25.10;44.10;25.80;99823.00;;;;6271966;22;20150;-56
2023/07/15 04:05:16;;;;;;;2.85;2.50;;;25.10;44.10;25.80;99823.00;;;;6271229;22;20608;-55
2023/07/15 04:07:42;;;;;;;2.70;2.50;;;25.10;44.20;25.80;99821.00;;;;6272183;22;20149;-56
2023/07/15 04:10:08;;;;;;;2.78;2.35;;;25.10;44.20;25.70;99824.00;;;;6272469;22;20202;-55
2023/07/15 04:12:33;;;;;;;3.30;2.50;;;25.20;44.30;25.70;99818.00;;;;6271547;22;20236;-55
2023/07/15 04:14:59;;;;;;;2.60;2.40;;;25.20;44.40;25.70;99826.00;;;;6269051;22;20184;-55
2023/07/15 04:17:25;;;;;;;2.70;2.50;;;25.10;44.30;25.70;99823.00;;;;6271822;22;20298;-55
2023/07/15 04:19:51;;;;;;;2.72;2.40;;;25.10;44.30;25.70;99812.00;;;;6265641;22;20596;-55
2023/07/15 04:22:17;;;;;;;2.83;2.63;;;25.10;44.60;25.70;99813.00;;;;6271249;22;20668;-55
2023/07/15 04:24:43;;;;;;;3.17;2.30;;;25.10;44.70;25.70;99811.00;;;;6270771;22;20156;-56
2023/07/15 04:27:08;;;;;;;2.78;2.58;;;25.10;44.70;25.70;99820.00;;;;6269453;22;20663;-55
2023/07/15 04:29:34;;;;;;;4.93;2.50;;;25.10;44.70;25.70;99819.00;;;;6271690;22;20821;-54
2023/07/15 04:32:00;;;;;;;2.55;2.25;;;25.00;44.80;25.70;99820.00;;;;6271365;22;20220;-55
2023/07/15 04:34:26;;;;;;;3.65;2.60;;;25.10;45.00;25.70;99809.00;;;;6271268;22;20145;-55
2023/07/15 04:36:51;;;;;;;5.57;2.65;;;25.00;45.00;25.60;99807.00;;;;6270349;22;20165;-55
2023/07/15 04:39:17;;;;;;;3.60;2.30;;;25.00;45.20;25.60;99808.00;;;;6270415;22;20149;-55
2023/07/15 04:41:43;;;;;;;3.42;2.53;;;25.00;45.30;25.60;99811.00;;;;6271472;22;20145;-55
2023/07/15 04:44:08;;;;;;;3.47;2.60;;;25.00;45.40;25.60;99813.00;;;;6271264;22;20673;-54
2023/07/15 04:46:35;;;;;;;2.60;2.40;;;25.00;45.40;25.60;99794.00;;;;6269910;22;20179;-53
2023/07/15 04:49:00;;;;;;;2.50;2.30;;;25.00;45.50;25.60;99800.00;;;;6271268;22;20542;-53
2023/07/15 04:51:26;;;;;;;2.78;2.47;;;25.00;45.50;25.60;99809.00;;;;6271123;22;20141;-56
2023/07/15 04:53:52;;;;;;;2.65;2.40;;;25.00;45.70;25.60;99821.00;;;;6271797;22;20149;-53
2023/07/15 04:56:18;;;;;;;2.58;2.30;;;25.00;45.70;25.60;99813.00;;;;6269418;22;20633;-56
2023/07/15 04:58:43;;;;;;;2.50;2.30;;;25.00;45.80;25.60;99828.00;;;;6269674;22;20152;-55
2023/07/15 05:01:09;;;;;;;2.60;2.40;;;25.00;45.90;25.60;99830.00;;;;6218966;22;20593;-54
2023/07/15 05:03:35;;;;;;;2.72;2.53;;;25.00;46.00;25.60;99829.00;;;;6270799;22;20214;-55
2023/07/15 05:06:00;;;;;;;2.83;2.63;;;25.00;45.90;25.60;99833.00;;;;6269749;22;20177;-54
2023/07/15 05:08:27;;;;;;;3.05;2.50;;;25.00;46.00;25.60;99823.00;;;;6270907;22;20141;-55
2023/07/15 05:10:53;;;;;;;4.03;2.67;;;25.00;46.00;25.60;99825.00;;;;6271334;22;20169;-55
2023/07/15 05:13:19;;;;;;;2.92;2.55;;;25.00;46.10;25.50;99754.00;;;;6271476;22;20145;-54
2023/07/15 05:15:45;;;;;;;3.58;2.50;;;25.00;46.40;25.50;99830.00;;;;6269831;22;20169;-55
2023/07/15 05:18:10;;;;;;;3.25;2.40;;;25.00;46.30;25.60;99827.00;;;;6271189;22;20137;-56
2023/07/15 05:20:37;;;;;;;2.60;2.40;;;25.00;46.40;25.50;99839.00;;;;6270221;22;20149;-60
2023/07/15 05:23:03;;;;;;;2.50;2.30;;;25.00;46.40;25.50;99825.00;;;;6271545;22;20617;-56
2023/07/15 05:25:30;;;;;;;3.03;2.40;;;25.00;46.30;25.50;99824.00;;;;6276054;22;20663;-54
2023/07/15 05:27:56;;;;;;;2.85;2.65;;;25.00;46.40;25.50;99817.00;;;;6285290;22;20153;-54
2023/07/15 05:30:22;;;;;;;3.45;2.60;;;24.90;46.50;25.50;99812.00;;;;6271960;22;20211;-54
2023/07/15 05:32:48;;;;;;;2.50;2.30;;;24.90;46.50;25.50;99812.00;;;;6273025;22;20191;-55
2023/07/15 05:35:14;;;;;;;3.13;2.30;;;25.00;46.60;25.50;99825.00;;;;6272105;22;20145;-54
2023/07/15 05:37:40;;;;;;;2.70;2.50;;;24.90;46.70;25.50;99821.00;;;;6272214;22;20164;-54
2023/07/15 05:40:09;;;;;;;2.75;2.40;;;25.00;46.80;25.50;99813.00;;;;6272923;22;20496;-55
2023/07/15 05:42:42;;;;;;;3.08;2.53;;;24.90;46.70;25.50;99810.00;;;;6257558;22;20228;-59
2023/07/15 05:45:09;;;;;;;2.65;2.28;;;24.90;46.90;25.50;99809.00;;;;6272982;22;20224;-55
2023/07/15 05:47:35;;;;;;;2.60;2.30;;;25.00;47.10;25.50;99812.00;;;;6270391;22;20215;-54
2023/07/15 05:50:01;;;;;;;2.70;2.50;;;24.90;46.90;25.50;99805.00;;;;6272680;22;20502;-54
2023/07/15 05:52:27;;;;;;;2.60;2.40;;;24.90;47.20;25.50;99813.00;;;;6272925;22;20145;-54
2023/07/15 05:54:53;;;;;;;2.50;2.30;;;24.90;47.40;25.50;99827.00;;;;6270789;22;20803;-54
2023/07/15 05:57:19;;;;;;;2.92;2.65;;;24.90;47.40;25.40;99811.00;;;;6272245;22;20200;-55
2023/07/15 05:59:45;;;;;;;2.60;2.40;;;24.90;47.40;25.50;99817.00;;;;6272603;22;20149;-55
2023/07/15 06:02:11;;;;;;;2.70;2.50;;;24.90;47.40;25.50;99831.00;;;;6272262;22;20495;-55
2023/07/15 06:04:36;;;;;;;2.70;2.50;;;25.00;47.60;25.50;99832.00;;;;6272460;22;20152;-55
2023/07/15 06:07:02;;;;;;;2.92;2.50;;;25.00;47.80;25.50;99834.00;;;;6272706;22;20173;-54
2023/07/15 06:09:28;;;;;;;2.78;2.30;;;25.00;47.90;25.50;99834.00;;;;6273122;22;20148;-54
2023/07/15 06:11:53;;;;;;;3.15;2.58;;;25.00;47.90;25.50;99830.00;;;;6273246;22;20488;-55
2023/07/15 06:14:19;;;;;;;2.80;2.60;;;25.00;47.90;25.50;99819.00;;;;6273673;22;20198;-54
2023/07/15 06:16:45;;;;;;;2.50;2.30;;;25.00;48.10;25.50;99812.00;;;;6271990;22;20191;-54
2023/07/15 06:19:11;;;;;;;3.00;2.25;;;25.00;48.20;25.50;99830.00;;;;6271258;22;20157;-55
2023/07/15 06:21:36;;;;;;;2.50;2.30;;;25.00;48.20;25.50;99826.00;;;;6270640;22;20149;-55
2023/07/15 06:24:03;;;;;;;2.50;2.30;;;25.00;48.40;25.50;99835.00;;;;6271401;22;20149;-55
2023/07/15 06:26:29;;;;;;;3.10;2.40;;;25.00;48.40;25.50;99829.00;;;;6270588;22;20212;-53
2023/07/15 06:28:54;;;;;;;2.50;2.30;;;25.00;48.50;25.50;99827.00;;;;6273056;22;20494;-56
2023/07/15 06:31:20;;;;;;;3.78;2.60;;;25.00;48.50;25.60;99823.00;;;;6272922;22;20145;-54
2023/07/15 06:33:47;;;;;;;2.95;2.55;;;25.10;48.50;25.60;99855.00;;;;6273083;22;20141;-55
2023/07/15 06:36:13;;;;;;;2.65;2.38;;;25.00;48.70;25.60;99847.00;;;;6271614;22;20169;-55
2023/07/15 06:38:39;;;;;;;2.75;2.50;;;25.00;48.80;25.60;99830.00;;;;6271697;22;20149;-54
2023/07/15 06:41:05;;;;;;;3.40;2.60;;;25.00;48.90;25.60;99828.00;;;;6273044;22;20188;-54
2023/07/15 06:43:31;;;;;;;4.82;2.75;;;25.00;48.90;25.60;99830.00;;;;6273169;22;20152;-55
2023/07/15 06:45:57;;;;;;;3.50;2.45;;;25.10;49.00;25.60;99840.00;;;;6272209;22;20192;-53
2023/07/15 06:48:23;;;;;;;4.43;2.90;;;25.10;49.00;25.60;99840.00;;;;6273115;22;20791;-53
2023/07/15 06:50:48;;;;;;;3.63;2.65;;;25.10;49.00;25.60;99839.00;;;;6272918;22;20218;-53
2023/07/15 06:53:14;;;;;;;3.28;2.80;;;25.10;49.10;25.70;99837.00;;;;6272859;22;20263;-54
2023/07/15 06:55:40;;;;;;;8.65;3.22;;;25.10;49.30;25.70;99833.00;;;;6271733;22;20164;-53
2023/07/15 06:58:06;;;;;;;5.07;2.63;;;25.20;49.40;25.70;99830.00;;;;6272457;22;20145;-53
2023/07/15 07:00:32;;;;;;;5.10;3.00;;;25.10;49.30;25.80;99821.00;;;;6273061;22;20152;-53
2023/07/15 07:02:59;;;;;;;3.30;2.50;;;25.20;49.40;25.80;99823.00;;;;6272825;22;20176;-53
2023/07/15 07:05:26;;;;;;;3.00;2.70;;;25.20;49.40;25.80;99835.00;;;;6271720;22;20169;-54
2023/07/15 07:07:52;;;;;;;5.32;2.60;;;25.20;49.60;25.80;99836.00;;;;6271328;22;20145;-53
2023/07/15 07:10:17;;;;;;;2.83;2.55;;;25.20;49.60;25.90;99836.00;;;;6272500;22;20461;-53
2023/07/15 07:12:43;;;;;;;3.10;2.60;;;25.20;49.50;25.90;99829.00;;;;6272525;22;20148;-54
2023/07/15 07:15:09;;;;;;;2.63;2.42;;;25.20;50.20;25.90;99827.00;;;;6271714;22;20173;-53
2023/07/15 07:17:35;;;;;;;2.63;2.42;;;25.20;49.60;25.90;99829.00;;;;6271125;22;20164;-54
2023/07/15 07:20:01;;;;;;;2.55;2.35;;;25.20;49.50;25.90;99837.00;;;;6271570;22;20149;-54
2023/07/15 07:22:27;;;;;;;4.15;2.45;;;25.20;49.50;25.90;99845.00;;;;6273258;22;20211;-54
2023/07/15 07:24:53;;;;;;;3.05;2.50;;;25.20;49.50;25.90;99849.00;;;;6270564;22;20157;-55
2023/07/15 07:27:19;;;;;;;3.55;2.50;;;25.20;49.40;25.90;99842.00;;;;6272692;22;20271;-55
2023/07/15 07:29:45;;;;;;;4.20;2.63;;;25.20;49.40;25.90;99844.00;;;;6272695;22;20145;-53
2023/07/15 07:32:11;;;;;;;2.88;2.40;;;25.20;49.40;25.90;99854.00;;;;6272913;22;20202;-53
2023/07/15 07:34:36;;;;;;;2.65;2.45;;;25.30;49.50;26.00;99855.00;;;;6273211;22;20227;-54
2023/07/15 07:37:02;;;;;;;2.90;2.70;;;25.30;49.50;26.00;99845.00;;;;6277826;22;20169;-54
2023/07/15 07:39:28;;;;;;;3.28;2.15;;;25.30;49.40;26.00;99851.00;;;;6273532;22;20336;-54
2023/07/15 07:41:55;;;;;;;2.78;2.30;;;25.30;49.40;26.00;99858.00;;;;6272797;22;20153;-54
2023/07/15 07:44:21;;;;;;;2.50;2.30;;;25.30;49.40;26.00;99862.00;;;;6272565;22;20380;-54
2023/07/15 07:46:47;;;;;;;2.63;2.42;;;25.30;49.40;26.00;99879.00;;;;6271480;22;20667;-54
2023/07/15 07:49:12;;;;;;;2.45;2.25;;;25.30;49.40;26.00;99880.00;;;;6271159;22;20141;-54
2023/07/15 07:51:38;;;;;;;2.50;2.30;;;25.30;49.40;26.00;99877.00;;;;6275329;22;20168;-54
2023/07/15 07:54:04;;;;;;;2.50;2.30;;;25.30;49.40;26.00;99880.00;;;;6277408;22;20145;-54
2023/07/15 07:56:29;;;;;;;2.58;2.38;;;25.30;49.50;26.00;99878.00;;;;6271965;22;20216;-53
2023/07/15 07:58:57;;;;;;;2.55;2.35;;;25.30;49.40;26.00;99873.00;;;;6272338;22;20149;-53
2023/07/15 08:01:26;;;;;;;3.05;2.20;;;25.30;49.40;26.00;99874.00;;;;6272332;22;20312;-54
2023/07/15 08:03:53;;;;;;;2.60;2.40;;;25.30;49.50;26.00;99892.00;;;;6272361;22;20293;-54
2023/07/15 08:06:23;;;;;;;2.28;2.13;;;25.30;49.50;26.00;99903.00;;;;6271667;22;20187;-53
2023/07/15 08:08:49;;;;;;;2.30;2.10;;;25.30;49.50;26.00;99914.00;;;;6272218;22;20632;-53
2023/07/15 08:11:15;;;;;;;2.42;2.22;;;25.30;49.50;26.00;99913.00;;;;6272425;22;20167;-52
2023/07/15 08:13:40;;;;;;;2.55;2.30;;;25.30;49.50;26.10;99917.00;;;;6272235;22;20149;-53
2023/07/15 08:16:29;;;;;;;2.58;2.38;;;25.30;49.60;26.00;99900.00;;;;6270865;22;20180;-53
2023/07/15 08:18:56;;;;;;;2.50;2.30;;;25.40;49.60;26.00;99894.00;;;;6270859;22;20144;-54
2023/07/15 08:21:23;;;;;;;3.03;2.30;;;25.40;49.70;26.10;99897.00;;;;6271140;22;20248;-53
2023/07/15 08:23:48;;;;;;;2.28;2.10;;;25.40;49.60;26.10;99911.00;;;;6271897;22;20149;-54
2023/07/15 08:26:14;;;;;;;2.40;2.20;;;25.30;49.60;26.10;99918.00;;;;6270414;22;20177;-53
2023/07/15 08:28:40;;;;;;;2.40;2.20;;;25.30;49.60;26.10;99931.00;;;;6272487;22;20149;-55
2023/07/15 08:31:05;;;;;;;2.65;2.17;;;25.40;49.70;26.10;99918.00;;;;6272574;22;20149;-53
2023/07/15 08:33:31;;;;;;;2.38;2.20;;;25.30;49.60;26.10;99931.00;;;;6272325;22;20145;-55
2023/07/15 08:35:57;;;;;;;2.42;2.22;;;25.40;49.80;26.10;99953.00;;;;6271242;22;20481;-54
2023/07/15 08:38:22;;;;;;;2.58;2.38;;;25.30;49.60;26.10;99979.00;;;;6272190;22;20149;-54
2023/07/15 08:40:48;;;;;;;2.97;2.20;;;25.40;49.80;26.10;100023.00;;;;6270591;22;20149;-54
2023/07/15 08:43:14;;;;;;;2.28;2.08;;;25.40;49.80;26.10;100026.00;;;;6270781;22;20176;-54
2023/07/15 08:45:40;;;;;;;2.10;2.00;;;25.40;49.80;26.10;100014.00;;;;6269216;22;20168;-54
2023/07/15 08:48:08;;;;;;;2.40;2.20;;;25.40;49.80;26.10;100010.00;;;;6270624;22;20152;-54
2023/07/15 08:50:34;;;;;;;1.98;1.88;;;25.40;49.90;26.10;100002.00;;;;6270925;22;20489;-55
2023/07/15 08:53:03;;;;;;;2.40;2.20;;;25.40;49.90;26.20;100009.00;;;;6272693;22;20145;-55
2023/07/15 08:55:29;;;;;;;2.40;2.20;;;25.40;50.00;26.10;100029.00;;;;6270831;22;20260;-54
2023/07/15 08:57:57;;;;;;;2.28;2.10;;;25.40;50.00;26.10;100012.00;;;;6271849;22;20149;-55
2023/07/15 09:00:22;;;;;;;2.22;2.13;;;25.40;50.10;26.20;100058.00;;;;6246672;22;20145;-56
2023/07/15 09:02:50;;;;;;;2.40;2.20;;;25.40;50.10;26.10;100070.00;;;;6272389;22;20220;-56
2023/07/15 09:05:16;;;;;;;2.28;2.17;;;25.40;50.30;26.20;100094.00;;;;6271241;22;20519;-55
2023/07/15 09:07:54;;;;;;;2.30;2.10;;;25.40;50.10;26.20;100097.00;;;;6273970;22;20180;-54
2023/07/15 09:10:20;;;;;;;2.40;2.20;;;25.40;50.10;26.20;100076.00;;;;6274056;22;20602;-54
2023/07/15 09:12:55;;;;;;;2.35;2.15;;;25.40;50.10;26.20;100094.00;;;;6272327;22;20149;-54
2023/07/15 09:15:21;;;;;;;2.50;2.30;;;25.40;50.10;26.20;100079.00;;;;6272658;22;20180;-54
2023/07/15 09:17:55;;;;;;;2.20;2.10;;;25.40;50.20;26.20;100075.00;;;;6272944;22;20164;-53
2023/07/15 09:20:21;;;;;;;2.30;2.10;;;25.50;50.20;26.20;100089.00;;;;6272378;22;20153;-54
2023/07/15 09:23:00;;;;;;;2.42;2.10;;;25.40;50.10;26.20;100085.00;;;;6272807;22;20149;-54
2023/07/15 09:25:26;;;;;;;2.58;2.38;;;25.50;50.20;26.20;100088.00;;;;6267356;22;20198;-54
2023/07/15 09:27:53;;;;;;;2.47;2.28;;;25.40;50.30;26.20;100086.00;;;;6272328;22;20494;-54
2023/07/15 09:30:19;;;;;;;2.40;2.20;;;25.40;50.30;26.20;100079.00;;;;6271424;22;20553;-53
2023/07/15 09:32:45;;;;;;;2.30;2.15;;;25.40;50.10;26.20;100074.00;;;;6272128;22;20149;-54
2023/07/15 09:35:10;;;;;;;2.00;1.90;;;25.40;50.40;26.20;100088.00;;;;6271847;22;20145;-54
2023/07/15 09:37:36;;;;;;;2.30;2.10;;;25.40;50.40;26.20;100069.00;;;;6273863;22;20240;-55
2023/07/15 09:40:09;;;;;;;2.38;2.17;;;25.50;50.40;26.20;100077.00;;;;6271409;22;20169;-54
2023/07/15 09:42:54;;;;;;;2.30;2.20;;;25.50;50.40;26.30;100049.00;;;;6273030;22;20141;-56
2023/07/15 09:45:40;;;;;;;2.42;2.13;;;25.50;50.30;26.20;100039.00;;;;6272362;22;20532;-55
2023/07/15 09:48:10;;;;;;;2.40;2.20;;;25.50;50.30;26.20;100035.00;;;;6277581;22;20144;-55
2023/07/15 09:50:37;;;;;;;2.53;2.05;;;25.50;50.40;26.20;100017.00;;;;6273558;22;20160;-54
2023/07/15 09:53:03;;;;;;;2.40;2.20;;;25.50;50.70;26.20;100018.00;;;;6271074;22;20180;-54
2023/07/15 09:55:30;;;;;;;2.35;2.15;;;25.50;50.90;26.20;100025.00;;;;6270484;22;20514;-54
2023/07/15 09:58:19;;;;;;;2.70;2.20;;;25.50;50.90;26.20;100004.00;;;;6272600;22;20175;-55
2023/07/15 10:01:17;;;;;;;5.55;2.40;;;25.50;51.00;26.20;99995.00;;;;6272809;22;20141;-54
2023/07/15 10:04:13;;;;;;;6.07;2.40;;;25.50;52.20;26.20;99946.00;;;;6276458;22;20188;-54
2023/07/15 10:06:39;;;;;;;2.50;2.30;;;25.50;52.30;26.20;99940.00;;;;6244548;22;20270;-55
2023/07/15 10:09:05;;;;;;;2.38;2.15;;;25.50;52.40;26.20;99933.00;;;;6270585;22;20173;-55
2023/07/15 10:11:31;;;;;;;3.13;2.45;;;25.50;52.90;26.20;99958.00;;;;6219836;22;20141;-52
2023/07/15 10:13:57;;;;;;;3.38;2.40;;;25.50;53.80;26.20;99971.00;;;;6218770;22;20168;-55
2023/07/15 10:16:23;;;;;;;5.60;2.42;;;25.50;53.70;26.10;99962.00;;;;6242056;22;20184;-56
2023/07/15 10:18:50;;;;;;;4.47;2.30;;;25.50;53.90;26.10;99954.00;;;;6245231;22;20686;-55
2023/07/15 10:21:16;;;;;;;3.97;2.42;;;25.50;54.60;26.10;99979.00;;;;6268809;22;20187;-53
2023/07/15 10:23:42;;;;;;;3.10;2.63;;;25.50;54.60;26.10;99964.00;;;;6272685;22;20473;-54
2023/07/15 10:26:11;;;;;;;4.40;2.72;;;25.50;55.10;26.10;99954.00;;;;6271527;22;20268;-56
2023/07/15 10:28:40;;;;;;;2.58;2.35;;;25.50;55.20;26.10;99965.00;;;;6271492;22;20145;-53
2023/07/15 10:31:13;;;;;;;5.25;2.75;;;25.50;55.50;26.00;99985.00;;;;6271788;22;20145;-55
2023/07/15 10:33:59;;;;;;;8.45;3.00;;;25.50;55.00;26.10;99988.00;;;;6271489;22;20791;-56
2023/07/15 10:36:42;;;;;;;9.25;2.80;;;25.50;55.00;26.00;100001.00;;;;6269385;22;20208;-55
2023/07/15 10:39:18;;;;;;;5.20;2.90;;;25.50;54.60;26.10;99972.00;;;;6270294;22;20142;-55
2023/07/15 10:41:48;;;;;;;13.57;3.20;;;25.50;54.60;26.10;99986.00;;;;6271963;22;20153;-55
2023/07/15 10:44:18;;;;;;;13.20;3.83;;;25.50;54.60;26.10;99974.00;;;;6270812;22;20627;-55
2023/07/15 10:46:50;;;;;;;22.25;3.92;;;25.50;54.60;26.10;99971.00;;;;6270732;22;20260;-55
2023/07/15 10:49:17;;;;;;;13.40;3.95;;;25.50;54.60;26.10;99965.00;;;;6272340;22;20129;-55
2023/07/15 10:51:44;;;;;;;15.05;3.55;;;25.50;54.60;26.10;99973.00;;;;6273044;22;20211;-55
2023/07/15 10:54:09;;;;;;;8.95;3.38;;;25.50;55.10;26.10;99975.00;;;;6272471;22;20160;-56